createdAt,value
2023-02-20T00:00:27.587Z,101623.59
2023-02-20T00:02:53.988Z,101611.75
2023-02-20T00:05:20.984Z,101614.44
2023-02-20T00:07:47.409Z,101594.75
2023-02-20T00:10:14.169Z,101585.47
2023-02-20T00:12:40.608Z,101592.41
2023-02-20T00:15:07.350Z,101594.97
2023-02-20T00:17:33.788Z,101580.59
2023-02-20T00:20:00.404Z,101587.53
2023-02-20T00:22:27.264Z,101588.53
2023-02-20T00:24:53.726Z,101587.75
2023-02-20T00:27:20.366Z,101582.72
2023-02-20T00:29:46.878Z,101587.97
2023-02-20T00:32:13.459Z,101593.09
2023-02-20T00:34:39.916Z,101587.75
2023-02-20T00:37:06.466Z,101585.16
2023-02-20T00:39:32.910Z,101581.81
2023-02-20T00:41:59.345Z,101568.97
2023-02-20T00:44:26.161Z,101558.56
2023-02-20T00:46:52.552Z,101551.75
2023-02-20T00:49:18.999Z,101548.41
2023-02-20T00:51:45.735Z,101550.88
2023-02-20T00:54:12.493Z,101547.19
2023-02-20T00:56:38.890Z,101556.44
2023-02-20T00:59:05.425Z,101559.78
2023-02-20T01:01:31.945Z,101558.09
2023-02-20T01:03:58.379Z,101555.53
2023-02-20T01:06:24.824Z,101540.38
2023-02-20T01:08:51.665Z,101537.13
2023-02-20T01:11:18.171Z,101533.19
2023-02-20T01:13:44.591Z,101534.97
2023-02-20T01:16:11.428Z,101532.53
2023-02-20T01:18:38.145Z,101533.56
2023-02-20T01:21:04.643Z,101538.81
2023-02-20T01:23:31.065Z,101529.53
2023-02-20T01:25:57.533Z,101519.34
2023-02-20T01:28:23.935Z,101524.47
2023-02-20T01:30:50.357Z,101521.13
2023-02-20T01:33:16.814Z,101525.59
2023-02-20T01:35:43.259Z,101518.88
2023-02-20T01:38:09.668Z,101514.97
2023-02-20T01:40:36.097Z,101506.00
2023-02-20T01:43:03.659Z,101493.50
2023-02-20T01:45:38.765Z,101480.94
2023-02-20T01:48:05.462Z,101482.06
2023-02-20T01:50:41.690Z,101478.91
2023-02-20T01:53:14.337Z,101464.72
2023-02-20T01:56:03.264Z,101462.56
2023-02-20T01:58:34.845Z,101451.59
2023-02-20T02:01:01.321Z,101449.38
2023-02-20T02:03:35.622Z,101439.38
2023-02-20T02:06:05.845Z,101438.69
2023-02-20T02:08:33.845Z,101439.03
2023-02-20T02:11:04.910Z,101441.09
2023-02-20T02:13:32.583Z,101424.19
2023-02-20T02:16:09.109Z,101435.47
2023-02-20T02:18:54.488Z,101427.28
2023-02-20T02:22:02.433Z,101411.84
2023-02-20T02:24:57.652Z,101414.63
2023-02-20T02:27:41.566Z,101418.38
2023-02-20T02:30:14.987Z,101412.56
2023-02-20T02:33:00.774Z,101412.56
2023-02-20T02:35:38.030Z,101404.34
2023-02-20T02:38:33.270Z,101397.00
2023-02-20T02:41:21.104Z,101393.69
2023-02-20T02:44:12.377Z,101380.22
2023-02-20T02:46:44.022Z,101386.25
2023-02-20T02:49:20.925Z,101378.72
2023-02-20T02:51:48.043Z,101369.50
2023-02-20T02:54:26.280Z,101364.44
2023-02-20T02:56:53.719Z,101362.09
2023-02-20T02:59:28.469Z,101368.41
2023-02-20T03:02:00.187Z,101373.66
2023-02-20T03:04:30.260Z,101370.28
2023-02-20T03:07:00.525Z,101371.50
2023-02-20T03:09:29.223Z,101362.00
2023-02-20T03:11:56.821Z,101373.28
2023-02-20T03:14:45.944Z,101369.22
2023-02-20T03:17:26.444Z,101370.81
2023-02-20T03:19:53.905Z,101358.91
2023-02-20T03:22:33.912Z,101358.31
2023-02-20T03:25:04.962Z,101361.75
2023-02-20T03:27:50.013Z,101357.72
2023-02-20T03:30:24.650Z,101359.50
2023-02-20T03:33:14.344Z,101367.34
2023-02-20T03:36:02.541Z,101365.94
2023-02-20T03:38:48.080Z,101377.31
2023-02-20T03:41:34.761Z,101380.69
2023-02-20T03:44:04.504Z,101402.19
2023-02-20T03:46:32.316Z,101390.28
2023-02-20T03:49:02.749Z,101378.41
2023-02-20T03:51:29.368Z,101373.47
2023-02-20T03:53:56.372Z,101367.50
2023-02-20T03:56:26.719Z,101368.41
2023-02-20T03:58:57.474Z,101350.53
2023-02-20T04:01:26.245Z,101355.69
2023-02-20T04:03:54.547Z,101350.63
2023-02-20T04:06:22.318Z,101341.22
2023-02-20T04:09:17.195Z,101347.97
2023-02-20T04:11:49.069Z,101342.09
2023-02-20T04:14:18.020Z,101333.69
2023-02-20T04:16:48.829Z,101332.09
2023-02-20T04:19:15.438Z,101327.81
2023-02-20T04:21:46.855Z,101317.69
2023-02-20T04:24:17.215Z,101304.00
2023-02-20T04:26:43.866Z,101299.84
2023-02-20T04:29:10.551Z,101294.69
2023-02-20T04:31:36.974Z,101300.81
2023-02-20T04:34:03.469Z,101302.59
2023-02-20T04:36:29.901Z,101303.59
2023-02-20T04:38:56.305Z,101314.09
2023-02-20T04:41:23.997Z,101272.03
2023-02-20T04:44:10.502Z,101261.81
2023-02-20T04:46:36.926Z,101270.97
2023-02-20T04:49:03.335Z,101263.25
2023-02-20T04:51:29.848Z,101263.41
2023-02-20T04:53:57.346Z,101241.19
2023-02-20T04:56:23.763Z,101238.63
2023-02-20T04:58:50.191Z,101236.03
2023-02-20T05:01:16.646Z,101218.78
2023-02-20T05:03:43.086Z,101239.69
2023-02-20T05:06:09.523Z,101240.66
2023-02-20T05:08:35.985Z,101247.41
2023-02-20T05:11:02.389Z,101231.44
2023-02-20T05:13:28.804Z,101235.06
2023-02-20T05:15:55.237Z,101233.06
2023-02-20T05:18:26.312Z,101231.44
2023-02-20T05:21:11.231Z,101224.41
2023-02-20T05:23:37.769Z,101217.75
2023-02-20T05:26:09.167Z,101218.56
2023-02-20T05:28:35.569Z,101191.56
2023-02-20T05:31:02.864Z,101188.91
2023-02-20T05:33:32.264Z,101174.16
2023-02-20T05:36:07.812Z,101165.34
2023-02-20T05:38:34.292Z,101186.88
2023-02-20T05:41:00.701Z,101206.53
2023-02-20T05:43:27.114Z,101210.09
2023-02-20T05:45:53.514Z,101195.41
2023-02-20T05:48:19.925Z,101205.72
2023-02-20T05:50:46.338Z,101187.84
2023-02-20T05:53:12.772Z,101189.09
2023-02-20T05:55:39.174Z,101191.78
2023-02-20T05:58:05.584Z,101182.22
2023-02-20T06:00:32.031Z,101180.84
2023-02-20T06:02:58.467Z,101179.16
2023-02-20T06:05:26.439Z,101167.22
2023-02-20T06:07:52.864Z,101151.66
2023-02-20T06:10:19.855Z,101140.53
2023-02-20T06:12:46.429Z,101144.72
2023-02-20T06:15:12.842Z,101133.69
2023-02-20T06:17:39.271Z,101116.34
2023-02-20T06:20:06.083Z,101125.06
2023-02-20T06:22:32.481Z,101124.25
2023-02-20T06:24:58.887Z,101127.63
2023-02-20T06:27:25.350Z,101113.13
2023-02-20T06:29:51.797Z,101113.94
2023-02-20T06:32:18.243Z,101117.47
2023-02-20T06:34:45.457Z,101117.56
2023-02-20T06:37:12.351Z,101118.19
2023-02-20T06:39:39.969Z,101117.56
2023-02-20T06:42:06.805Z,101118.66
2023-02-20T06:44:33.369Z,101123.00
2023-02-20T06:47:00.625Z,101123.97
2023-02-20T06:49:27.058Z,101123.34
2023-02-20T06:51:54.481Z,101126.09
2023-02-20T06:54:22.226Z,101131.34
2023-02-20T06:56:48.708Z,101139.97
2023-02-20T06:59:15.226Z,101132.41
2023-02-20T07:01:42.931Z,101121.22
2023-02-20T07:04:25.409Z,101121.13
2023-02-20T07:06:53.049Z,101123.06
2023-02-20T07:09:20.377Z,101122.25
2023-02-20T07:11:46.910Z,101112.09
2023-02-20T07:14:13.766Z,101119.03
2023-02-20T07:16:40.198Z,101095.81
2023-02-20T07:19:06.669Z,101102.94
2023-02-20T07:21:33.145Z,101096.31
2023-02-20T07:23:59.839Z,101091.41
2023-02-20T07:26:28.741Z,101093.19
2023-02-20T07:29:03.630Z,101095.16
2023-02-20T07:31:30.180Z,101081.44
2023-02-20T07:33:57.467Z,101078.13
2023-02-20T07:36:23.908Z,101084.25
2023-02-20T07:38:58.617Z,101067.16
2023-02-20T07:41:26.476Z,101074.09
2023-02-20T07:43:52.889Z,101075.09
2023-02-20T07:46:20.552Z,101081.41
2023-02-20T07:48:47.155Z,101080.66
2023-02-20T07:51:14.119Z,101080.75
2023-02-20T07:53:40.676Z,101085.25
2023-02-20T07:56:07.111Z,101082.22
2023-02-20T07:58:33.512Z,101085.59
2023-02-20T08:00:59.920Z,101090.19
2023-02-20T08:03:27.304Z,101081.03
2023-02-20T08:05:53.773Z,101084.72
2023-02-20T08:08:20.292Z,101085.69
2023-02-20T08:10:47.912Z,101084.13
2023-02-20T08:13:15.500Z,101071.56
2023-02-20T08:15:42.028Z,101090.75
2023-02-20T08:18:18.722Z,101081.38
2023-02-20T08:20:49.492Z,101071.25
2023-02-20T08:23:20.984Z,101070.66
2023-02-20T08:25:47.468Z,101060.38
2023-02-20T08:28:14.506Z,101059.09
2023-02-20T08:30:40.953Z,101061.81
2023-02-20T08:33:07.367Z,101061.16
2023-02-20T08:35:36.701Z,101059.53
2023-02-20T08:38:05.048Z,101068.50
2023-02-20T08:40:31.733Z,101057.50
2023-02-20T08:42:58.208Z,101062.81
2023-02-20T08:45:24.792Z,101067.41
2023-02-20T08:47:51.797Z,101046.88
2023-02-20T08:50:19.245Z,101047.34
2023-02-20T08:52:46.199Z,101029.38
2023-02-20T08:55:13.134Z,101020.25
2023-02-20T08:57:43.190Z,101005.94
2023-02-20T09:00:10.415Z,100987.88
2023-02-20T09:02:36.839Z,100996.97
2023-02-20T09:05:04.155Z,100981.78
2023-02-20T09:07:30.566Z,100980.41
2023-02-20T09:09:56.990Z,100966.69
2023-02-20T09:12:23.442Z,100967.25
2023-02-20T09:14:49.918Z,100968.47
2023-02-20T09:17:16.823Z,100960.13
2023-02-20T09:19:43.438Z,100954.41
2023-02-20T09:22:09.860Z,100951.97
2023-02-20T09:24:36.420Z,100956.78
2023-02-20T09:27:06.357Z,100958.13
2023-02-20T09:29:32.789Z,100953.25
2023-02-20T09:31:59.310Z,100963.78
2023-02-20T09:34:26.566Z,100980.56
2023-02-20T09:36:54.766Z,100970.31
2023-02-20T09:39:21.875Z,100967.22
2023-02-20T09:41:59.948Z,100976.22
2023-02-20T09:44:35.646Z,100978.94
2023-02-20T09:47:19.805Z,100972.09
2023-02-20T09:49:46.265Z,100952.44
2023-02-20T09:52:14.786Z,100944.09
2023-02-20T09:54:51.848Z,100945.22
2023-02-20T09:57:22.553Z,100942.66
2023-02-20T09:59:52.401Z,100954.97
2023-02-20T10:02:26.939Z,100950.72
2023-02-20T10:05:01.294Z,100972.69
2023-02-20T10:07:31.142Z,100959.66
2023-02-20T10:09:59.115Z,100936.72
2023-02-20T10:12:35.671Z,100938.50
2023-02-20T10:15:11.112Z,100938.09
2023-02-20T10:17:51.200Z,100937.31
2023-02-20T10:20:25.943Z,100932.25
2023-02-20T10:23:06.310Z,100937.59
2023-02-20T10:25:40.377Z,100940.25
2023-02-20T10:28:16.355Z,100928.00
2023-02-20T10:30:46.898Z,100935.06
2023-02-20T10:33:35.520Z,100933.56
2023-02-20T10:36:22.862Z,100932.63
2023-02-20T10:38:53.214Z,100933.72
2023-02-20T10:41:55.340Z,100924.31
2023-02-20T10:44:37.592Z,100929.41
2023-02-20T10:47:20.778Z,100933.66
2023-02-20T10:49:59.410Z,100941.44
2023-02-20T10:52:36.807Z,100929.41
2023-02-20T10:55:09.981Z,100942.28
2023-02-20T10:57:57.042Z,100934.50
2023-02-20T11:00:29.621Z,100941.44
2023-02-20T11:03:04.541Z,100934.53
2023-02-20T11:05:34.333Z,100941.44
2023-02-20T11:08:00.864Z,100931.94
2023-02-20T11:10:27.869Z,100921.50
2023-02-20T11:13:01.227Z,100909.25
2023-02-20T11:15:31.112Z,100929.75
2023-02-20T11:17:59.240Z,100919.22
2023-02-20T11:20:38.623Z,100912.31
2023-02-20T11:23:05.192Z,100913.03
2023-02-20T11:25:36.396Z,100911.59
2023-02-20T11:28:19.469Z,100894.38
2023-02-20T11:30:48.149Z,100905.09
2023-02-20T11:33:21.541Z,100892.03
2023-02-20T11:35:50.221Z,100918.13
2023-02-20T11:38:22.825Z,100896.59
2023-02-20T11:41:12.423Z,100884.34
2023-02-20T11:43:49.741Z,100866.22
2023-02-20T11:46:24.385Z,100875.16
2023-02-20T11:48:56.825Z,100858.59
2023-02-20T11:51:39.622Z,100851.34
2023-02-20T11:54:08.332Z,100865.34
2023-02-20T11:56:34.816Z,100847.22
2023-02-20T11:59:27.361Z,100850.91
2023-02-20T12:02:00.803Z,100834.53
2023-02-20T12:04:27.678Z,100841.56
2023-02-20T12:06:54.303Z,100837.13
2023-02-20T12:09:23.440Z,100830.13
2023-02-20T12:11:53.988Z,100849.97
2023-02-20T12:14:20.588Z,100844.44
2023-02-20T12:16:50.061Z,100837.59
2023-02-20T12:19:20.359Z,100846.31
2023-02-20T12:22:11.590Z,100844.81
2023-02-20T12:24:56.282Z,100838.75
2023-02-20T12:27:31.664Z,100844.72
2023-02-20T12:30:13.072Z,100842.78
2023-02-20T12:33:17.207Z,100849.56
2023-02-20T12:35:55.467Z,100850.59
2023-02-20T12:38:45.623Z,100846.22
2023-02-20T12:41:29.804Z,100846.22
2023-02-20T12:44:26.142Z,100851.91
2023-02-20T12:47:34.176Z,100849.88
2023-02-20T12:50:28.856Z,100868.66
2023-02-20T12:53:29.130Z,100878.09
2023-02-20T12:56:06.038Z,100888.19
2023-02-20T12:58:45.613Z,100877.53
2023-02-20T13:01:14.064Z,100860.88
2023-02-20T13:04:00.928Z,100862.53
2023-02-20T13:06:47.610Z,100874.50
2023-02-20T13:09:32.254Z,100889.88
2023-02-20T13:12:03.524Z,100883.41
2023-02-20T13:14:46.852Z,100892.25
2023-02-20T13:17:29.837Z,100890.50
2023-02-20T13:20:11.817Z,100886.94
2023-02-20T13:22:38.322Z,100905.88
2023-02-20T13:25:34.097Z,100895.41
2023-02-20T13:28:02.252Z,100878.09
2023-02-20T13:30:28.776Z,100877.41
2023-02-20T13:33:19.019Z,100867.16
2023-02-20T13:35:56.045Z,100881.06
2023-02-20T13:38:24.936Z,100877.69
2023-02-20T13:40:58.657Z,100867.50
2023-02-20T13:43:43.170Z,100898.50
2023-02-20T13:46:20.164Z,100885.94
2023-02-20T13:48:51.628Z,100870.38
2023-02-20T13:51:21.453Z,100866.94
2023-02-20T13:53:51.142Z,100885.88
2023-02-20T13:56:21.385Z,100861.59
2023-02-20T13:58:49.051Z,100852.16
2023-02-20T14:01:15.756Z,100846.13
2023-02-20T14:03:42.314Z,100854.59
2023-02-20T14:06:11.491Z,100851.06
2023-02-20T14:08:42.005Z,100864.78
2023-02-20T14:11:14.871Z,100854.28
2023-02-20T14:13:45.749Z,100866.63
2023-02-20T14:16:31.919Z,100852.63
2023-02-20T14:19:13.129Z,100860.19
2023-02-20T14:21:39.544Z,100856.88
2023-02-20T14:24:21.386Z,100865.25
2023-02-20T14:26:48.444Z,100869.56
2023-02-20T14:29:30.051Z,100868.53
2023-02-20T14:31:59.228Z,100878.69
2023-02-20T14:34:31.552Z,100893.09
2023-02-20T14:37:00.297Z,100880.19
2023-02-20T14:39:39.517Z,100874.06
2023-02-20T14:42:06.524Z,100887.75
2023-02-20T14:44:33.484Z,100878.31
2023-02-20T14:47:12.514Z,100875.78
2023-02-20T14:49:39.001Z,100883.22
2023-02-20T14:52:11.304Z,100879.59
2023-02-20T14:54:38.840Z,100885.59
2023-02-20T14:57:05.877Z,100865.56
2023-02-20T14:59:34.661Z,100887.91
2023-02-20T15:02:33.330Z,100885.91
2023-02-20T15:05:05.103Z,100887.56
2023-02-20T15:07:31.869Z,100885.75
2023-02-20T15:10:00.668Z,100872.66
2023-02-20T15:12:35.337Z,100876.13
2023-02-20T15:15:11.064Z,100875.25
2023-02-20T15:17:40.566Z,100881.25
2023-02-20T15:20:33.873Z,100881.03
2023-02-20T15:23:16.155Z,100872.38
2023-02-20T15:25:43.183Z,100874.09
2023-02-20T15:28:18.715Z,100885.41
2023-02-20T15:31:09.289Z,100866.31
2023-02-20T15:33:56.058Z,100876.34
2023-02-20T15:36:25.030Z,100868.41
2023-02-20T15:38:56.295Z,100873.53
2023-02-20T15:41:23.744Z,100866.69
2023-02-20T15:43:51.692Z,100881.44
2023-02-20T15:46:19.649Z,100882.34
2023-02-20T15:48:46.224Z,100873.75
2023-02-20T15:51:16.559Z,100877.88
2023-02-20T15:53:45.769Z,100871.81
2023-02-20T15:56:12.689Z,100875.16
2023-02-20T15:58:42.921Z,100877.69
2023-02-20T16:01:10.547Z,100872.50
2023-02-20T16:03:50.478Z,100869.03
2023-02-20T16:06:19.613Z,100871.69
2023-02-20T16:08:46.836Z,100881.22
2023-02-20T16:11:13.544Z,100874.28
2023-02-20T16:13:43.284Z,100877.69
2023-02-20T16:16:24.297Z,100876.63
2023-02-20T16:18:54.421Z,100877.34
2023-02-20T16:21:21.850Z,100878.06
2023-02-20T16:23:50.077Z,100877.81
2023-02-20T16:26:17.882Z,100877.81
2023-02-20T16:28:45.430Z,100884.00
2023-02-20T16:31:12.549Z,100882.34
2023-02-20T16:33:39.038Z,100882.09
2023-02-20T16:36:08.899Z,100879.16
2023-02-20T16:38:37.536Z,100880.88
2023-02-20T16:41:04.318Z,100879.13
2023-02-20T16:43:30.763Z,100879.78
2023-02-20T16:45:57.185Z,100876.25
2023-02-20T16:48:24.696Z,100890.78
2023-02-20T16:50:53.155Z,100885.50
2023-02-20T16:53:20.655Z,100895.84
2023-02-20T16:55:48.563Z,100898.31
2023-02-20T16:58:15.409Z,100892.13
2023-02-20T17:00:51.284Z,100893.59
2023-02-20T17:03:22.923Z,100891.00
2023-02-20T17:05:49.346Z,100907.34
2023-02-20T17:08:15.786Z,100907.16
2023-02-20T17:10:42.265Z,100903.56
2023-02-20T17:13:08.673Z,100904.28
2023-02-20T17:15:37.523Z,100905.84
2023-02-20T17:18:04.725Z,100904.16
2023-02-20T17:20:31.458Z,100917.91
2023-02-20T17:23:04.917Z,100911.72
2023-02-20T17:25:32.780Z,100909.88
2023-02-20T17:27:59.470Z,100919.28
2023-02-20T17:30:25.966Z,100916.47
2023-02-20T17:32:53.217Z,100917.34
2023-02-20T17:35:19.752Z,100910.41
2023-02-20T17:37:46.187Z,100909.38
2023-02-20T17:40:13.267Z,100918.97
2023-02-20T17:42:39.718Z,100915.44
2023-02-20T17:45:06.934Z,100925.66
2023-02-20T17:47:34.074Z,100921.31
2023-02-20T17:50:00.501Z,100918.53
2023-02-20T17:52:26.922Z,100909.25
2023-02-20T17:54:55.359Z,100924.53
2023-02-20T17:57:22.436Z,100900.38
2023-02-20T17:59:51.723Z,100909.91
2023-02-20T18:02:19.156Z,100908.31
2023-02-20T18:04:45.569Z,100885.59
2023-02-20T18:07:13.468Z,100877.03
2023-02-20T18:09:39.908Z,100878.66
2023-02-20T18:12:06.835Z,100880.28
2023-02-20T18:14:33.339Z,100872.41
2023-02-20T18:16:59.773Z,100881.88
2023-02-20T18:19:26.270Z,100882.63
2023-02-20T18:21:52.894Z,100881.63
2023-02-20T18:24:24.370Z,100869.50
2023-02-20T18:26:52.513Z,100864.34
2023-02-20T18:29:21.445Z,100872.25
2023-02-20T18:31:48.958Z,100860.28
2023-02-20T18:34:15.460Z,100861.97
2023-02-20T18:36:45.083Z,100858.66
2023-02-20T18:39:13.934Z,100850.88
2023-02-20T18:41:41.863Z,100860.47
2023-02-20T18:44:09.099Z,100855.31
2023-02-20T18:46:37.034Z,100851.91
2023-02-20T18:49:04.039Z,100846.72
2023-02-20T18:51:32.977Z,100846.78
2023-02-20T18:53:59.904Z,100851.22
2023-02-20T18:56:26.749Z,100840.88
2023-02-20T18:58:53.635Z,100826.16
2023-02-20T19:01:20.739Z,100826.16
2023-02-20T19:03:48.687Z,100827.81
2023-02-20T19:06:28.059Z,100827.81
2023-02-20T19:08:56.193Z,100811.53
2023-02-20T19:11:23.685Z,100805.41
2023-02-20T19:13:50.174Z,100808.81
2023-02-20T19:16:16.991Z,100813.97
2023-02-20T19:18:50.400Z,100822.56
2023-02-20T19:21:18.266Z,100812.28
2023-02-20T19:23:45.722Z,100816.88
2023-02-20T19:26:12.660Z,100818.63
2023-02-20T19:28:42.234Z,100815.06
2023-02-20T19:31:12.899Z,100826.31
2023-02-20T19:33:39.808Z,100817.59
2023-02-20T19:36:09.892Z,100827.13
2023-02-20T19:38:38.225Z,100839.25
2023-02-20T19:41:04.772Z,100837.56
2023-02-20T19:43:31.192Z,100828.22
2023-02-20T19:45:57.732Z,100839.47
2023-02-20T19:48:25.471Z,100844.63
2023-02-20T19:50:55.153Z,100844.63
2023-02-20T19:53:21.570Z,100848.09
2023-02-20T19:55:49.317Z,100843.13
2023-02-20T19:58:15.732Z,100837.94
2023-02-20T20:00:42.318Z,100823.25
2023-02-20T20:03:08.774Z,100837.06
2023-02-20T20:05:35.209Z,100823.31
2023-02-20T20:08:01.649Z,100831.19
2023-02-20T20:10:30.618Z,100835.44
2023-02-20T20:12:57.030Z,100840.59
2023-02-20T20:15:25.451Z,100847.47
2023-02-20T20:17:55.430Z,100847.47
2023-02-20T20:20:23.536Z,100844.91
2023-02-20T20:22:52.303Z,100851.91
2023-02-20T20:25:20.618Z,100856.13
2023-02-20T20:27:51.329Z,100856.94
2023-02-20T20:30:20.950Z,100851.84
2023-02-20T20:32:49.922Z,100842.38
2023-02-20T20:35:21.470Z,100842.31
2023-02-20T20:37:48.287Z,100856.94
2023-02-20T20:40:16.670Z,100855.31
2023-02-20T20:42:43.506Z,100862.19
2023-02-20T20:45:13.365Z,100850.22
2023-02-20T20:47:40.496Z,100844.91
2023-02-20T20:50:07.025Z,100847.47
2023-02-20T20:52:33.412Z,100840.59
2023-02-20T20:55:01.158Z,100850.88
2023-02-20T20:57:30.019Z,100838.91
2023-02-20T20:59:58.414Z,100839.66
2023-02-20T21:02:24.893Z,100837.81
2023-02-20T21:04:58.035Z,100832.66
2023-02-20T21:07:34.365Z,100839.59
2023-02-20T21:10:01.844Z,100823.94
2023-02-20T21:12:28.313Z,100824.81
2023-02-20T21:14:54.745Z,100835.09
2023-02-20T21:17:21.174Z,100836.56
2023-02-20T21:19:47.602Z,100835.84
2023-02-20T21:22:15.106Z,100835.94
2023-02-20T21:24:41.582Z,100833.19
2023-02-20T21:27:08.026Z,100830.69
2023-02-20T21:29:37.238Z,100836.75
2023-02-20T21:32:03.736Z,100838.44
2023-02-20T21:34:30.176Z,100843.69
2023-02-20T21:36:57.080Z,100839.47
2023-02-20T21:39:24.200Z,100836.06
2023-02-20T21:42:10.243Z,100840.47
2023-02-20T21:44:39.074Z,100835.31
2023-02-20T21:47:08.942Z,100840.53
2023-02-20T21:49:36.579Z,100838.78
2023-02-20T21:52:05.067Z,100837.81
2023-02-20T21:54:32.243Z,100847.41
2023-02-20T21:56:59.898Z,100846.53
2023-02-20T21:59:26.311Z,100846.66
2023-02-20T22:01:53.150Z,100837.19
2023-02-20T22:04:20.352Z,100837.19
2023-02-20T22:07:06.418Z,100834.78
2023-02-20T22:09:52.041Z,100835.72
2023-02-20T22:12:37.005Z,100828.63
2023-02-20T22:15:22.083Z,100832.13
2023-02-20T22:18:07.055Z,100832.19
2023-02-20T22:20:52.173Z,100833.78
2023-02-20T22:23:37.230Z,100826.84
2023-02-20T22:26:22.736Z,100827.72
2023-02-20T22:29:07.800Z,100812.97
2023-02-20T22:31:52.979Z,100808.66
2023-02-20T22:34:38.188Z,100820.78
2023-02-20T22:37:23.324Z,100817.25
2023-02-20T22:40:08.397Z,100814.78
2023-02-20T22:42:53.604Z,100825.06
2023-02-20T22:45:38.602Z,100822.44
2023-02-20T22:48:23.640Z,100824.25
2023-02-20T22:51:08.576Z,100828.47
2023-02-20T22:53:53.722Z,100816.31
2023-02-20T22:56:39.785Z,100822.44
2023-02-20T22:59:24.788Z,100811.25
2023-02-20T23:02:09.985Z,100819.03
2023-02-20T23:04:55.067Z,100819.97
2023-02-20T23:07:40.190Z,100816.50
2023-02-20T23:10:25.578Z,100820.94
2023-02-20T23:13:10.891Z,100812.31
2023-02-20T23:15:57.057Z,100805.41
2023-02-20T23:18:41.962Z,100817.47
2023-02-20T23:21:26.926Z,100804.59
2023-02-20T23:24:11.924Z,100814.13
2023-02-20T23:26:57.949Z,100797.72
2023-02-20T23:29:43.025Z,100796.97
2023-02-20T23:32:28.010Z,100790.09
2023-02-20T23:35:13.126Z,100804.84
2023-02-20T23:37:58.211Z,100802.16
2023-02-20T23:40:43.353Z,100803.91
2023-02-20T23:43:28.417Z,100804.66
2023-02-20T23:46:13.442Z,100801.19
2023-02-20T23:48:58.429Z,100807.31
2023-02-20T23:51:43.412Z,100805.69
2023-02-20T23:54:28.490Z,100805.69
2023-02-20T23:57:13.587Z,100800.50
2023-02-20T23:59:58.816Z,100804.84
